sensor_id;sensor_type;location;lat;lon;timestamp;pressure;altitude;pressure_sealevel;temperature;humidity
62978;BME280;49073;42.352;23.808;2022-12-11T00:02:22;92678.16;;;8.67;100.00
62978;BME280;49073;42.352;23.808;2022-12-11T00:05:22;92691.38;;;8.71;100.00
62978;BME280;49073;42.352;23.808;2022-12-11T00:08:23;92680.03;;;8.67;100.00
62978;BME280;49073;42.352;23.808;2022-12-11T00:11:23;92664.88;;;8.67;100.00
62978;BME280;49073;42.352;23.808;2022-12-11T00:14:24;92697.88;;;8.63;100.00
62978;BME280;49073;42.352;23.808;2022-12-11T00:17:25;92678.09;;;8.75;100.00
62978;BME280;49073;42.352;23.808;2022-12-11T00:20:27;92712.94;;;8.80;100.00
62978;BME280;49073;42.352;23.808;2022-12-11T00:23:27;92693.13;;;8.92;100.00
62978;BME280;49073;42.352;23.808;2022-12-11T00:26:28;92700.31;;;8.95;100.00
62978;BME280;49073;42.352;23.808;2022-12-11T00:29:28;92687.34;;;9.05;100.00
62978;BME280;49073;42.352;23.808;2022-12-11T00:32:29;92670.63;;;9.08;100.00
62978;BME280;49073;42.352;23.808;2022-12-11T00:35:31;92702.97;;;8.99;100.00
62978;BME280;49073;42.352;23.808;2022-12-11T00:38:31;92703.66;;;9.07;100.00
62978;BME280;49073;42.352;23.808;2022-12-11T00:41:32;92673.34;;;9.00;100.00
62978;BME280;49073;42.352;23.808;2022-12-11T00:44:33;92660.09;;;8.97;100.00
62978;BME280;49073;42.352;23.808;2022-12-11T00:47:34;92658.16;;;9.01;100.00
62978;BME280;49073;42.352;23.808;2022-12-11T00:50:35;92696.13;;;8.98;100.00
62978;BME280;49073;42.352;23.808;2022-12-11T00:53:35;92691.91;;;9.04;100.00
62978;BME280;49073;42.352;23.808;2022-12-11T00:56:36;92688.91;;;9.02;100.00
62978;BME280;49073;42.352;23.808;2022-12-11T00:59:37;92668.38;;;9.06;100.00
62978;BME280;49073;42.352;23.808;2022-12-11T01:02:38;92672.66;;;8.93;100.00
62978;BME280;49073;42.352;23.808;2022-12-11T01:05:39;92661.31;;;8.88;100.00
62978;BME280;49073;42.352;23.808;2022-12-11T01:08:39;92658.53;;;8.99;100.00
62978;BME280;49073;42.352;23.808;2022-12-11T01:11:41;92643.00;;;8.98;100.00
62978;BME280;49073;42.352;23.808;2022-12-11T01:14:42;92640.00;;;8.96;100.00
62978;BME280;49073;42.352;23.808;2022-12-11T01:17:43;92662.59;;;8.69;100.00
62978;BME280;49073;42.352;23.808;2022-12-11T01:20:43;92661.13;;;8.57;100.00
62978;BME280;49073;42.352;23.808;2022-12-11T01:23:44;92672.13;;;8.59;100.00
62978;BME280;49073;42.352;23.808;2022-12-11T01:26:44;92657.63;;;8.71;100.00
62978;BME280;49073;42.352;23.808;2022-12-11T01:29:45;92642.09;;;8.70;100.00
62978;BME280;49073;42.352;23.808;2022-12-11T01:32:45;92632.16;;;8.78;100.00
62978;BME280;49073;42.352;23.808;2022-12-11T01:35:46;92658.41;;;8.68;100.00
62978;BME280;49073;42.352;23.808;2022-12-11T01:38:47;92663.75;;;8.65;100.00
62978;BME280;49073;42.352;23.808;2022-12-11T01:41:48;92647.44;;;8.66;100.00
62978;BME280;49073;42.352;23.808;2022-12-11T01:47:50;92652.22;;;8.82;100.00
62978;BME280;49073;42.352;23.808;2022-12-11T01:50:55;92654.22;;;8.71;100.00
62978;BME280;49073;42.352;23.808;2022-12-11T01:54:00;92654.28;;;8.64;100.00
62978;BME280;49073;42.352;23.808;2022-12-11T01:57:04;92657.69;;;8.64;100.00
62978;BME280;49073;42.352;23.808;2022-12-11T02:00:06;92682.69;;;8.70;100.00
62978;BME280;49073;42.352;23.808;2022-12-11T02:03:07;92691.75;;;8.77;100.00
62978;BME280;49073;42.352;23.808;2022-12-11T02:06:29;92662.16;;;8.75;100.00
62978;BME280;49073;42.352;23.808;2022-12-11T02:09:32;92647.66;;;8.86;100.00
62978;BME280;49073;42.352;23.808;2022-12-11T02:12:40;92679.78;;;8.99;100.00
62978;BME280;49073;42.352;23.808;2022-12-11T02:15:47;92693.91;;;8.93;100.00
62978;BME280;49073;42.352;23.808;2022-12-11T02:18:56;92714.75;;;8.94;100.00
62978;BME280;49073;42.352;23.808;2022-12-11T02:22:02;92719.69;;;8.96;100.00
62978;BME280;49073;42.352;23.808;2022-12-11T02:31:31;92701.47;;;8.98;100.00
62978;BME280;49073;42.352;23.808;2022-12-11T02:34:41;92716.50;;;9.15;100.00
62978;BME280;49073;42.352;23.808;2022-12-11T02:37:44;92706.22;;;9.17;100.00
62978;BME280;49073;42.352;23.808;2022-12-11T02:40:49;92708.19;;;9.10;100.00
62978;BME280;49073;42.352;23.808;2022-12-11T02:43:52;92719.59;;;9.07;100.00
62978;BME280;49073;42.352;23.808;2022-12-11T02:46:55;92724.59;;;9.01;100.00
62978;BME280;49073;42.352;23.808;2022-12-11T02:49:59;92712.16;;;8.87;100.00
62978;BME280;49073;42.352;23.808;2022-12-11T02:53:02;92693.50;;;8.94;100.00
62978;BME280;49073;42.352;23.808;2022-12-11T02:56:14;92702.19;;;9.02;100.00
62978;BME280;49073;42.352;23.808;2022-12-11T02:59:30;92708.69;;;8.94;100.00
62978;BME280;49073;42.352;23.808;2022-12-11T03:02:33;92724.72;;;8.79;100.00
62978;BME280;49073;42.352;23.808;2022-12-11T03:05:34;92741.84;;;8.75;100.00
62978;BME280;49073;42.352;23.808;2022-12-11T03:08:35;92736.91;;;8.73;100.00
62978;BME280;49073;42.352;23.808;2022-12-11T03:11:35;92740.31;;;8.70;100.00
62978;BME280;49073;42.352;23.808;2022-12-11T03:14:36;92742.09;;;8.95;100.00
62978;BME280;49073;42.352;23.808;2022-12-11T03:17:59;92746.31;;;8.85;100.00
62978;BME280;49073;42.352;23.808;2022-12-11T03:21:12;92755.38;;;8.91;100.00
62978;BME280;49073;42.352;23.808;2022-12-11T03:24:20;92746.31;;;8.88;100.00
62978;BME280;49073;42.352;23.808;2022-12-11T03:27:47;92742.88;;;8.88;100.00
62978;BME280;49073;42.352;23.808;2022-12-11T03:30:52;92739.44;;;8.91;100.00
62978;BME280;49073;42.352;23.808;2022-12-11T03:33:55;92718.97;;;8.92;100.00
62978;BME280;49073;42.352;23.808;2022-12-11T03:36:59;92692.63;;;8.59;100.00
62978;BME280;49073;42.352;23.808;2022-12-11T03:40:10;92705.47;;;8.64;100.00
62978;BME280;49073;42.352;23.808;2022-12-11T03:43:12;92729.78;;;8.55;100.00
62978;BME280;49073;42.352;23.808;2022-12-11T03:46:14;92730.25;;;8.32;100.00
62978;BME280;49073;42.352;23.808;2022-12-11T03:49:19;92728.34;;;8.40;100.00
62978;BME280;49073;42.352;23.808;2022-12-11T03:52:22;92729.16;;;8.29;100.00
62978;BME280;49073;42.352;23.808;2022-12-11T03:55:23;92711.72;;;8.21;100.00
62978;BME280;49073;42.352;23.808;2022-12-11T03:58:25;92694.38;;;8.09;100.00
62978;BME280;49073;42.352;23.808;2022-12-11T04:01:26;92701.59;;;8.01;100.00
62978;BME280;49073;42.352;23.808;2022-12-11T04:04:27;92697.06;;;7.95;100.00
62978;BME280;49073;42.352;23.808;2022-12-11T04:07:27;92692.22;;;7.79;100.00
62978;BME280;49073;42.352;23.808;2022-12-11T04:10:28;92705.88;;;7.74;100.00
62978;BME280;49073;42.352;23.808;2022-12-11T04:13:29;92711.94;;;7.63;100.00
62978;BME280;49073;42.352;23.808;2022-12-11T04:16:30;92710.44;;;7.55;100.00
62978;BME280;49073;42.352;23.808;2022-12-11T04:19:30;92703.66;;;7.36;100.00
62978;BME280;49073;42.352;23.808;2022-12-11T04:22:51;92691.88;;;7.59;100.00
62978;BME280;49073;42.352;23.808;2022-12-11T04:26:13;92686.09;;;7.89;100.00
62978;BME280;49073;42.352;23.808;2022-12-11T04:29:14;92685.69;;;8.01;100.00
62978;BME280;49073;42.352;23.808;2022-12-11T04:32:14;92691.75;;;7.98;100.00
62978;BME280;49073;42.352;23.808;2022-12-11T04:35:15;92691.78;;;7.91;100.00
62978;BME280;49073;42.352;23.808;2022-12-11T04:38:16;92696.00;;;7.78;100.00
62978;BME280;49073;42.352;23.808;2022-12-11T04:41:17;92670.69;;;7.59;100.00
62978;BME280;49073;42.352;23.808;2022-12-11T04:44:17;92680.13;;;7.63;100.00
62978;BME280;49073;42.352;23.808;2022-12-11T04:47:18;92689.22;;;7.59;100.00
62978;BME280;49073;42.352;23.808;2022-12-11T04:50:18;92716.09;;;7.68;100.00
62978;BME280;49073;42.352;23.808;2022-12-11T04:53:19;92706.25;;;7.61;100.00
62978;BME280;49073;42.352;23.808;2022-12-11T04:56:20;92714.94;;;7.69;100.00
62978;BME280;49073;42.352;23.808;2022-12-11T04:59:21;92717.22;;;7.70;100.00
62978;BME280;49073;42.352;23.808;2022-12-11T05:02:21;92712.31;;;7.69;100.00
62978;BME280;49073;42.352;23.808;2022-12-11T05:05:22;92719.88;;;7.70;100.00
62978;BME280;49073;42.352;23.808;2022-12-11T05:08:23;92725.56;;;7.65;100.00
62978;BME280;49073;42.352;23.808;2022-12-11T05:11:23;92739.94;;;7.64;100.00
62978;BME280;49073;42.352;23.808;2022-12-11T05:14:24;92741.47;;;7.72;100.00
62978;BME280;49073;42.352;23.808;2022-12-11T05:17:26;92749.81;;;7.67;100.00
62978;BME280;49073;42.352;23.808;2022-12-11T05:20:26;92755.88;;;7.57;100.00
62978;BME280;49073;42.352;23.808;2022-12-11T05:23:28;92753.19;;;7.64;100.00
62978;BME280;49073;42.352;23.808;2022-12-11T05:26:29;92757.00;;;7.67;100.00
62978;BME280;49073;42.352;23.808;2022-12-11T05:29:29;92761.19;;;7.53;100.00
62978;BME280;49073;42.352;23.808;2022-12-11T05:32:30;92772.16;;;7.45;100.00
62978;BME280;49073;42.352;23.808;2022-12-11T05:35:30;92770.25;;;7.49;100.00
62978;BME280;49073;42.352;23.808;2022-12-11T05:38:31;92767.22;;;7.54;100.00
62978;BME280;49073;42.352;23.808;2022-12-11T05:41:32;92763.44;;;7.59;100.00
62978;BME280;49073;42.352;23.808;2022-12-11T05:44:33;92774.06;;;7.37;100.00
62978;BME280;49073;42.352;23.808;2022-12-11T05:47:33;92782.41;;;7.39;100.00
62978;BME280;49073;42.352;23.808;2022-12-11T05:50:34;92778.97;;;7.38;100.00
62978;BME280;49073;42.352;23.808;2022-12-11T05:53:36;92813.06;;;7.29;100.00
62978;BME280;49073;42.352;23.808;2022-12-11T05:56:37;92811.13;;;7.04;100.00
62978;BME280;49073;42.352;23.808;2022-12-11T05:59:37;92804.69;;;7.02;100.00
62978;BME280;49073;42.352;23.808;2022-12-11T06:02:38;92809.59;;;6.96;100.00
62978;BME280;49073;42.352;23.808;2022-12-11T06:05:39;92812.63;;;7.05;100.00
62978;BME280;49073;42.352;23.808;2022-12-11T06:08:41;92791.44;;;6.91;100.00
62978;BME280;49073;42.352;23.808;2022-12-11T06:11:41;92780.84;;;6.83;100.00
62978;BME280;49073;42.352;23.808;2022-12-11T06:14:42;92797.53;;;7.17;100.00
62978;BME280;49073;42.352;23.808;2022-12-11T06:17:43;92806.25;;;7.35;100.00
62978;BME280;49073;42.352;23.808;2022-12-11T06:20:43;92802.44;;;7.69;100.00
62978;BME280;49073;42.352;23.808;2022-12-11T06:23:45;92806.19;;;7.90;100.00
62978;BME280;49073;42.352;23.808;2022-12-11T06:26:46;92785.31;;;8.06;100.00
62978;BME280;49073;42.352;23.808;2022-12-11T06:29:47;92783.03;;;8.15;100.00
62978;BME280;49073;42.352;23.808;2022-12-11T06:32:47;92786.03;;;8.28;100.00
62978;BME280;49073;42.352;23.808;2022-12-11T06:35:48;92797.69;;;8.45;100.00
62978;BME280;49073;42.352;23.808;2022-12-11T06:38:49;92791.59;;;8.59;100.00
62978;BME280;49073;42.352;23.808;2022-12-11T06:41:50;92789.63;;;8.71;100.00
62978;BME280;49073;42.352;23.808;2022-12-11T06:44:51;92788.44;;;8.86;100.00
62978;BME280;49073;42.352;23.808;2022-12-11T06:47:51;92790.28;;;8.93;100.00
62978;BME280;49073;42.352;23.808;2022-12-11T06:50:52;92794.94;;;8.71;100.00
62978;BME280;49073;42.352;23.808;2022-12-11T06:53:55;92779.91;;;8.39;100.00
62978;BME280;49073;42.352;23.808;2022-12-11T06:56:56;92784.03;;;8.47;100.00
62978;BME280;49073;42.352;23.808;2022-12-11T06:59:56;92777.59;;;8.44;100.00
62978;BME280;49073;42.352;23.808;2022-12-11T07:02:57;92780.66;;;8.43;100.00
62978;BME280;49073;42.352;23.808;2022-12-11T07:06:01;92782.06;;;8.66;100.00
62978;BME280;49073;42.352;23.808;2022-12-11T07:09:04;92777.50;;;8.70;100.00
62978;BME280;49073;42.352;23.808;2022-12-11T07:12:05;92782.13;;;8.62;100.00
62978;BME280;49073;42.352;23.808;2022-12-11T07:15:06;92780.97;;;8.63;100.00
62978;BME280;49073;42.352;23.808;2022-12-11T07:18:09;92767.19;;;8.79;100.00
62978;BME280;49073;42.352;23.808;2022-12-11T07:21:12;92767.56;;;8.81;100.00
62978;BME280;49073;42.352;23.808;2022-12-11T07:24:12;92774.28;;;9.00;100.00
62978;BME280;49073;42.352;23.808;2022-12-11T07:27:13;92794.81;;;8.96;100.00
62978;BME280;49073;42.352;23.808;2022-12-11T07:30:13;92818.34;;;8.98;100.00
62978;BME280;49073;42.352;23.808;2022-12-11T07:33:14;92822.19;;;8.90;100.00
62978;BME280;49073;42.352;23.808;2022-12-11T07:36:15;92808.97;;;8.75;100.00
62978;BME280;49073;42.352;23.808;2022-12-11T07:39:15;92811.91;;;8.95;100.00
62978;BME280;49073;42.352;23.808;2022-12-11T07:42:16;92814.53;;;8.99;100.00
62978;BME280;49073;42.352;23.808;2022-12-11T07:45:16;92808.72;;;9.22;100.00
62978;BME280;49073;42.352;23.808;2022-12-11T07:48:17;92807.84;;;9.36;100.00
62978;BME280;49073;42.352;23.808;2022-12-11T07:51:34;92809.91;;;9.63;100.00
62978;BME280;49073;42.352;23.808;2022-12-11T07:54:35;92807.91;;;9.78;100.00
62978;BME280;49073;42.352;23.808;2022-12-11T07:57:36;92811.56;;;9.92;100.00
62978;BME280;49073;42.352;23.808;2022-12-11T08:00:36;92813.34;;;10.06;100.00
62978;BME280;49073;42.352;23.808;2022-12-11T08:03:37;92810.19;;;10.14;100.00
62978;BME280;49073;42.352;23.808;2022-12-11T08:06:38;92814.63;;;10.28;100.00
62978;BME280;49073;42.352;23.808;2022-12-11T08:09:39;92819.06;;;10.42;100.00
62978;BME280;49073;42.352;23.808;2022-12-11T08:12:41;92819.69;;;10.54;100.00
62978;BME280;49073;42.352;23.808;2022-12-11T08:15:41;92816.69;;;10.52;100.00
62978;BME280;49073;42.352;23.808;2022-12-11T08:18:43;92821.00;;;10.38;100.00
62978;BME280;49073;42.352;23.808;2022-12-11T08:21:44;92823.13;;;10.16;100.00
62978;BME280;49073;42.352;23.808;2022-12-11T08:24:46;92825.09;;;10.08;100.00
62978;BME280;49073;42.352;23.808;2022-12-11T08:27:46;92818.38;;;10.31;100.00
62978;BME280;49073;42.352;23.808;2022-12-11T08:30:47;92817.94;;;10.40;100.00
62978;BME280;49073;42.352;23.808;2022-12-11T08:33:48;92828.78;;;10.56;100.00
62978;BME280;49073;42.352;23.808;2022-12-11T08:36:49;92821.94;;;10.55;100.00
62978;BME280;49073;42.352;23.808;2022-12-11T08:39:49;92824.81;;;10.37;100.00
62978;BME280;49073;42.352;23.808;2022-12-11T08:42:50;92835.47;;;10.37;100.00
62978;BME280;49073;42.352;23.808;2022-12-11T08:45:51;92841.91;;;10.40;100.00
62978;BME280;49073;42.352;23.808;2022-12-11T08:48:53;92836.19;;;10.38;100.00
62978;BME280;49073;42.352;23.808;2022-12-11T08:51:54;92847.59;;;10.42;100.00
62978;BME280;49073;42.352;23.808;2022-12-11T08:54:54;92847.00;;;10.61;100.00
62978;BME280;49073;42.352;23.808;2022-12-11T08:57:58;92841.88;;;10.78;100.00
62978;BME280;49073;42.352;23.808;2022-12-11T09:00:59;92834.53;;;10.86;100.00
62978;BME280;49073;42.352;23.808;2022-12-11T09:04:00;92825.19;;;10.74;100.00
62978;BME280;49073;42.352;23.808;2022-12-11T09:07:00;92821.28;;;10.79;100.00
62978;BME280;49073;42.352;23.808;2022-12-11T09:10:01;92828.69;;;10.98;100.00
62978;BME280;49073;42.352;23.808;2022-12-11T09:13:03;92828.56;;;11.05;100.00
62978;BME280;49073;42.352;23.808;2022-12-11T09:16:09;92817.34;;;10.90;100.00
62978;BME280;49073;42.352;23.808;2022-12-11T09:19:12;92812.13;;;10.83;100.00
62978;BME280;49073;42.352;23.808;2022-12-11T09:22:13;92804.56;;;10.78;100.00
62978;BME280;49073;42.352;23.808;2022-12-11T09:25:13;92811.78;;;10.77;100.00
62978;BME280;49073;42.352;23.808;2022-12-11T09:28:14;92821.16;;;10.89;100.00
62978;BME280;49073;42.352;23.808;2022-12-11T09:31:17;92806.81;;;10.80;100.00
62978;BME280;49073;42.352;23.808;2022-12-11T09:34:18;92798.78;;;10.83;100.00
62978;BME280;49073;42.352;23.808;2022-12-11T09:37:19;92806.44;;;11.09;100.00
62978;BME280;49073;42.352;23.808;2022-12-11T09:40:20;92805.84;;;11.25;100.00
62978;BME280;49073;42.352;23.808;2022-12-11T09:46:34;92809.72;;;10.93;100.00
62978;BME280;49073;42.352;23.808;2022-12-11T09:49:42;92822.69;;;10.90;100.00
62978;BME280;49073;42.352;23.808;2022-12-11T09:53:04;92806.66;;;10.94;100.00
62978;BME280;49073;42.352;23.808;2022-12-11T09:56:19;92804.69;;;10.98;100.00
62978;BME280;49073;42.352;23.808;2022-12-11T09:59:39;92801.16;;;11.32;100.00
62978;BME280;49073;42.352;23.808;2022-12-11T10:12:47;92800.22;;;11.19;100.00
62978;BME280;49073;42.352;23.808;2022-12-11T10:19:23;92797.50;;;11.23;100.00
62978;BME280;49073;42.352;23.808;2022-12-11T10:22:31;92794.09;;;11.18;100.00
62978;BME280;49073;42.352;23.808;2022-12-11T10:25:39;92790.75;;;11.14;100.00
62978;BME280;49073;42.352;23.808;2022-12-11T10:28:40;92790.09;;;11.34;100.00
62978;BME280;49073;42.352;23.808;2022-12-11T10:31:44;92799.03;;;11.47;100.00
62978;BME280;49073;42.352;23.808;2022-12-11T10:34:55;92805.03;;;11.28;100.00
62978;BME280;49073;42.352;23.808;2022-12-11T10:38:24;92798.00;;;11.14;100.00
62978;BME280;49073;42.352;23.808;2022-12-11T10:41:37;92770.66;;;11.33;100.00
62978;BME280;49073;42.352;23.808;2022-12-11T10:44:38;92766.50;;;11.56;100.00
62978;BME280;49073;42.352;23.808;2022-12-11T10:47:39;92767.09;;;11.68;100.00
62978;BME280;49073;42.352;23.808;2022-12-11T10:50:40;92762.00;;;11.73;100.00
62978;BME280;49073;42.352;23.808;2022-12-11T10:53:49;92771.78;;;11.84;100.00
62978;BME280;49073;42.352;23.808;2022-12-11T10:56:50;92773.56;;;11.67;100.00
62978;BME280;49073;42.352;23.808;2022-12-11T10:59:51;92773.84;;;11.72;100.00
62978;BME280;49073;42.352;23.808;2022-12-11T11:02:51;92763.16;;;11.96;100.00
62978;BME280;49073;42.352;23.808;2022-12-11T11:06:05;92757.53;;;12.14;100.00
62978;BME280;49073;42.352;23.808;2022-12-11T11:09:27;92746.03;;;12.38;100.00
62978;BME280;49073;42.352;23.808;2022-12-11T11:12:28;92752.88;;;12.39;100.00
62978;BME280;49073;42.352;23.808;2022-12-11T11:15:29;92749.38;;;12.42;97.91
62978;BME280;49073;42.352;23.808;2022-12-11T11:18:31;92746.47;;;12.52;97.25
62978;BME280;49073;42.352;23.808;2022-12-11T11:21:33;92743.94;;;12.65;96.91
62978;BME280;49073;42.352;23.808;2022-12-11T11:24:51;92739.09;;;12.77;94.48
62978;BME280;49073;42.352;23.808;2022-12-11T11:28:00;92745.56;;;12.79;93.14
62978;BME280;49073;42.352;23.808;2022-12-11T11:31:07;92738.19;;;12.67;93.96
62978;BME280;49073;42.352;23.808;2022-12-11T11:34:18;92736.59;;;12.70;94.25
62978;BME280;49073;42.352;23.808;2022-12-11T11:37:29;92732.59;;;12.78;95.14
62978;BME280;49073;42.352;23.808;2022-12-11T11:40:36;92734.94;;;12.92;91.94
62978;BME280;49073;42.352;23.808;2022-12-11T11:43:42;92721.66;;;12.89;93.49
62978;BME280;49073;42.352;23.808;2022-12-11T11:46:48;92722.91;;;12.84;91.73
62978;BME280;49073;42.352;23.808;2022-12-11T11:50:01;92726.34;;;12.85;90.85
62978;BME280;49073;42.352;23.808;2022-12-11T11:53:12;92722.00;;;12.74;92.25
62978;BME280;49073;42.352;23.808;2022-12-11T11:59:31;92737.09;;;12.81;91.59
62978;BME280;49073;42.352;23.808;2022-12-11T12:02:34;92727.34;;;12.74;91.22
62978;BME280;49073;42.352;23.808;2022-12-11T12:12:16;92715.53;;;12.72;97.81
62978;BME280;49073;42.352;23.808;2022-12-11T12:15:55;92713.88;;;12.78;98.79
62978;BME280;49073;42.352;23.808;2022-12-11T12:19:07;92706.78;;;12.71;97.25
62978;BME280;49073;42.352;23.808;2022-12-11T12:29:53;92714.13;;;12.67;90.57
62978;BME280;49073;42.352;23.808;2022-12-11T12:42:37;92708.47;;;12.82;88.65
62978;BME280;49073;42.352;23.808;2022-12-11T12:45:52;92698.94;;;12.97;87.64
62978;BME280;49073;42.352;23.808;2022-12-11T12:48:56;92690.66;;;12.91;87.81
62978;BME280;49073;42.352;23.808;2022-12-11T12:51:58;92686.81;;;12.92;87.67
62978;BME280;49073;42.352;23.808;2022-12-11T12:55:04;92692.94;;;12.93;87.79
62978;BME280;49073;42.352;23.808;2022-12-11T13:01:25;92693.16;;;12.82;90.21
62978;BME280;49073;42.352;23.808;2022-12-11T13:04:39;92691.00;;;12.77;90.24
62978;BME280;49073;42.352;23.808;2022-12-11T13:07:48;92684.91;;;12.76;90.40
62978;BME280;49073;42.352;23.808;2022-12-11T13:11:01;92681.56;;;12.72;89.10
62978;BME280;49073;42.352;23.808;2022-12-11T13:20:24;92691.50;;;12.72;87.51
62978;BME280;49073;42.352;23.808;2022-12-11T13:23:32;92698.16;;;12.63;89.12
62978;BME280;49073;42.352;23.808;2022-12-11T13:26:34;92708.25;;;12.56;89.61
62978;BME280;49073;42.352;23.808;2022-12-11T13:29:39;92708.84;;;12.63;90.08
62978;BME280;49073;42.352;23.808;2022-12-11T13:32:48;92717.69;;;12.60;90.73
62978;BME280;49073;42.352;23.808;2022-12-11T13:35:49;92717.34;;;12.58;90.74
62978;BME280;49073;42.352;23.808;2022-12-11T13:39:07;92713.69;;;12.52;90.22
62978;BME280;49073;42.352;23.808;2022-12-11T13:42:38;92722.38;;;12.56;90.23
62978;BME280;49073;42.352;23.808;2022-12-11T13:45:46;92714.50;;;12.49;91.10
62978;BME280;49073;42.352;23.808;2022-12-11T13:48:53;92714.66;;;12.42;91.75
62978;BME280;49073;42.352;23.808;2022-12-11T13:51:58;92725.06;;;12.36;92.82
62978;BME280;49073;42.352;23.808;2022-12-11T13:54:59;92726.63;;;12.33;93.39
62978;BME280;49073;42.352;23.808;2022-12-11T13:58:00;92735.13;;;12.28;94.38
62978;BME280;49073;42.352;23.808;2022-12-11T14:04:18;92743.22;;;12.04;93.08
62978;BME280;49073;42.352;23.808;2022-12-11T14:07:34;92751.81;;;11.92;92.81
62978;BME280;49073;42.352;23.808;2022-12-11T14:10:35;92751.28;;;11.77;94.17
62978;BME280;49073;42.352;23.808;2022-12-11T14:13:39;92752.34;;;11.59;96.68
62978;BME280;49073;42.352;23.808;2022-12-11T14:16:41;92758.69;;;11.45;99.13
62978;BME280;49073;42.352;23.808;2022-12-11T14:19:46;92776.44;;;11.28;100.00
62978;BME280;49073;42.352;23.808;2022-12-11T14:22:47;92782.03;;;11.10;100.00
62978;BME280;49073;42.352;23.808;2022-12-11T14:26:16;92785.63;;;11.00;100.00
62978;BME280;49073;42.352;23.808;2022-12-11T14:29:27;92773.25;;;10.86;100.00
62978;BME280;49073;42.352;23.808;2022-12-11T14:32:35;92786.38;;;10.73;100.00
62978;BME280;49073;42.352;23.808;2022-12-11T14:35:39;92773.22;;;10.58;100.00
62978;BME280;49073;42.352;23.808;2022-12-11T14:38:48;92795.75;;;10.50;100.00
62978;BME280;49073;42.352;23.808;2022-12-11T14:45:22;92789.06;;;10.34;100.00
62978;BME280;49073;42.352;23.808;2022-12-11T14:48:29;92789.50;;;10.29;100.00
62978;BME280;49073;42.352;23.808;2022-12-11T14:51:35;92791.41;;;10.29;100.00
62978;BME280;49073;42.352;23.808;2022-12-11T14:54:43;92791.41;;;10.29;100.00
62978;BME280;49073;42.352;23.808;2022-12-11T14:57:48;92802.47;;;10.27;100.00
62978;BME280;49073;42.352;23.808;2022-12-11T15:01:01;92801.75;;;10.23;100.00
62978;BME280;49073;42.352;23.808;2022-12-11T15:04:18;92800.63;;;10.21;100.00
62978;BME280;49073;42.352;23.808;2022-12-11T15:07:19;92790.75;;;10.21;100.00
62978;BME280;49073;42.352;23.808;2022-12-11T15:10:23;92773.34;;;10.13;100.00
62978;BME280;49073;42.352;23.808;2022-12-11T15:13:24;92769.88;;;10.16;100.00
62978;BME280;49073;42.352;23.808;2022-12-11T15:16:27;92785.09;;;10.15;100.00
62978;BME280;49073;42.352;23.808;2022-12-11T15:19:32;92773.88;;;9.97;100.00
62978;BME280;49073;42.352;23.808;2022-12-11T15:22:34;92770.25;;;9.34;100.00
62978;BME280;49073;42.352;23.808;2022-12-11T15:25:35;92773.59;;;8.93;100.00
62978;BME280;49073;42.352;23.808;2022-12-11T15:28:36;92780.59;;;8.57;100.00
62978;BME280;49073;42.352;23.808;2022-12-11T15:31:37;92781.09;;;8.30;100.00
62978;BME280;49073;42.352;23.808;2022-12-11T15:37:51;92796.69;;;7.99;100.00
62978;BME280;49073;42.352;23.808;2022-12-11T15:40:52;92799.03;;;7.76;100.00
62978;BME280;49073;42.352;23.808;2022-12-11T15:43:54;92805.47;;;7.60;100.00
62978;BME280;49073;42.352;23.808;2022-12-11T15:46:55;92799.81;;;7.47;100.00
62978;BME280;49073;42.352;23.808;2022-12-11T15:50:01;92805.09;;;7.36;100.00
62978;BME280;49073;42.352;23.808;2022-12-11T15:53:08;92813.41;;;7.35;100.00
62978;BME280;49073;42.352;23.808;2022-12-11T15:56:12;92825.53;;;7.21;100.00
62978;BME280;49073;42.352;23.808;2022-12-11T15:59:14;92835.38;;;7.13;100.00
62978;BME280;49073;42.352;23.808;2022-12-11T16:02:15;92838.34;;;7.01;100.00
62978;BME280;49073;42.352;23.808;2022-12-11T16:05:16;92842.16;;;6.96;100.00
62978;BME280;49073;42.352;23.808;2022-12-11T16:08:19;92848.94;;;6.94;100.00
62978;BME280;49073;42.352;23.808;2022-12-11T16:11:20;92877.72;;;7.10;100.00
62978;BME280;49073;42.352;23.808;2022-12-11T16:14:21;92885.31;;;7.19;100.00
62978;BME280;49073;42.352;23.808;2022-12-11T16:17:22;92894.03;;;7.19;100.00
62978;BME280;49073;42.352;23.808;2022-12-11T16:20:22;92911.47;;;7.31;100.00
62978;BME280;49073;42.352;23.808;2022-12-11T16:23:23;92920.94;;;7.32;100.00
62978;BME280;49073;42.352;23.808;2022-12-11T16:26:23;92918.66;;;7.34;100.00
62978;BME280;49073;42.352;23.808;2022-12-11T16:29:24;92920.91;;;7.36;100.00
62978;BME280;49073;42.352;23.808;2022-12-11T16:32:24;92939.50;;;7.39;100.00
62978;BME280;49073;42.352;23.808;2022-12-11T16:35:25;92943.66;;;7.37;99.57
62978;BME280;49073;42.352;23.808;2022-12-11T16:38:25;92958.75;;;7.33;99.09
62978;BME280;49073;42.352;23.808;2022-12-11T16:41:26;92970.88;;;7.30;100.00
62978;BME280;49073;42.352;23.808;2022-12-11T16:44:26;92978.41;;;7.13;99.66
62978;BME280;49073;42.352;23.808;2022-12-11T16:47:28;93000.38;;;7.21;100.00
62978;BME280;49073;42.352;23.808;2022-12-11T16:50:29;93003.00;;;7.21;100.00
62978;BME280;49073;42.352;23.808;2022-12-11T16:53:31;93021.59;;;7.25;100.00
62978;BME280;49073;42.352;23.808;2022-12-11T16:56:31;93036.66;;;7.10;99.81
62978;BME280;49073;42.352;23.808;2022-12-11T16:59:32;93038.19;;;7.15;100.00
62978;BME280;49073;42.352;23.808;2022-12-11T17:02:33;93057.09;;;7.09;100.00
62978;BME280;49073;42.352;23.808;2022-12-11T17:05:34;93069.56;;;7.09;100.00
62978;BME280;49073;42.352;23.808;2022-12-11T17:08:35;93082.06;;;7.12;100.00
62978;BME280;49073;42.352;23.808;2022-12-11T17:11:36;93093.47;;;7.23;100.00